Hoanya Wisdom — 3EQU7 — position and weather

sailwx.info

Track history (hours):
 
Tides and Currents Weather Stations Pressure Air Temp Water Temp Dewpoint Dewpoint Depression Visibility Wind Speed Wind Dir Waves Ship Positions

Hoanya Wisdom

Last reported at 2018-Jun-08 20:37 UTC. Time now 2018-Jun-22 03:38 UTC.
Position N 30°16' E 123°10'.
Warning: this ship's position is 13 days out of date.

Length 152 m; draft 5.4 m.

Type: Cargo ship. MMSI: 355824000.

Date/timePositionNaut miles runAvg speedWind from/ knotsBaromVisibWave heightAir tempDewpointWater temp
2018-Jun-08 20:37N 30°16' E 123°10'212.9
2018-Jun-08 20:26N 30°18' E 123°10'612.8
2018-Jun-08 19:59N 30°24' E 123°10'2812.8
2018-Jun-08 17:46N 30°50' E 122°57'22 1.0
2018-Jun-07 20:15N 30°59' E 122°33'411.3
2018-Jun-07 19:52N 30°60' E 122°28'411.4
2018-Jun-07 19:30N 31°01' E 122°23'610.0
2018-Jun-07 18:54N 31°02' E 122°16'4 9.7
2018-Jun-07 18:30N 31°03' E 122°12'510.5
2018-Jun-07 17:59N 31°04' E 122°06'511.2
2018-Jun-07 17:30N 31°05' E 121°60'612.5
2018-Jun-07 17:00N 31°09' E 121°53'714.2
2018-Jun-07 16:30N 31°14' E 121°48'2311.0
2018-Jun-07 14:23N 31°29' E 121°27'512.4
2018-Jun-07 14:00N 31°32' E 121°22'612.8
2018-Jun-07 13:30N 31°36' E 121°17'4411.4
2018-Jun-07 09:42N 32°00' E 120°34'314.7
2018-Jun-07 09:30N 32°01' E 120°31'  
Track history (hours):
 
Tides and Currents Weather Stations Pressure Air Temp Water Temp Dewpoint Dewpoint Depression Visibility Wind Speed Wind Dir Waves Ship Positions

Hoanya Wisdom

Last reported at 2018-Jun-08 20:37 UTC. Time now 2018-Jun-22 03:38 UTC.
Position N 30°16' E 123°10'.
Warning: this ship's position is 13 days out of date.

Length 152 m; draft 5.4 m.

Type: Cargo ship. MMSI: 355824000.

Date/timePositionNaut miles runAvg speedWind from/ knotsBaromVisibWave heightAir tempDewpointWater temp
2018-Jun-08 20:37N 30°16' E 123°10'212.9
2018-Jun-08 20:26N 30°18' E 123°10'612.8
2018-Jun-08 19:59N 30°24' E 123°10'2812.8
2018-Jun-08 17:46N 30°50' E 122°57'22 1.0
2018-Jun-07 20:15N 30°59' E 122°33'411.3
2018-Jun-07 19:52N 30°60' E 122°28'411.4
2018-Jun-07 19:30N 31°01' E 122°23'610.0
2018-Jun-07 18:54N 31°02' E 122°16'4 9.7
2018-Jun-07 18:30N 31°03' E 122°12'510.5
2018-Jun-07 17:59N 31°04' E 122°06'511.2
2018-Jun-07 17:30N 31°05' E 121°60'612.5
2018-Jun-07 17:00N 31°09' E 121°53'714.2
2018-Jun-07 16:30N 31°14' E 121°48'2311.0
2018-Jun-07 14:23N 31°29' E 121°27'512.4
2018-Jun-07 14:00N 31°32' E 121°22'612.8
2018-Jun-07 13:30N 31°36' E 121°17'4411.4
2018-Jun-07 09:42N 32°00' E 120°34'314.7
2018-Jun-07 09:30N 32°01' E 120°31'  

Dump ship's entire track history